createdAt,value
2023-06-30T00:00:28.845Z,19.74
2023-06-30T00:01:28.898Z,19.73
2023-06-30T00:02:28.955Z,19.74
2023-06-30T00:03:28.998Z,19.73
2023-06-30T00:04:29.006Z,19.69
2023-06-30T00:05:28.885Z,19.69
2023-06-30T00:06:28.858Z,19.68
2023-06-30T00:07:28.812Z,19.65
2023-06-30T00:08:28.738Z,19.63
2023-06-30T00:09:28.697Z,19.62
2023-06-30T00:10:28.680Z,19.59
2023-06-30T00:11:28.728Z,19.59
2023-06-30T00:12:28.695Z,19.58
2023-06-30T00:13:28.744Z,19.56
2023-06-30T00:14:28.700Z,19.56
2023-06-30T00:15:28.642Z,19.56
2023-06-30T00:16:28.675Z,19.55
2023-06-30T00:17:28.641Z,19.55
2023-06-30T00:18:28.601Z,19.55
2023-06-30T00:19:28.569Z,19.56
2023-06-30T00:20:28.563Z,19.55
2023-06-30T00:21:28.540Z,19.56
2023-06-30T00:22:28.539Z,19.58
2023-06-30T00:23:28.526Z,19.56
2023-06-30T00:24:28.497Z,19.58
2023-06-30T00:25:28.503Z,19.58
2023-06-30T00:26:28.504Z,19.55
2023-06-30T00:27:28.508Z,19.55
2023-06-30T00:28:28.450Z,19.58
2023-06-30T00:29:28.428Z,19.58
2023-06-30T00:30:28.428Z,19.56
2023-06-30T00:31:28.463Z,19.55
2023-06-30T00:32:28.416Z,19.55
2023-06-30T00:33:28.467Z,19.55
2023-06-30T00:34:28.392Z,19.55
2023-06-30T00:35:28.362Z,19.55
2023-06-30T00:36:28.352Z,19.55
2023-06-30T00:37:28.327Z,19.56
2023-06-30T00:38:28.382Z,19.56
2023-06-30T00:39:28.310Z,19.56
2023-06-30T00:40:28.313Z,19.56
2023-06-30T00:41:28.288Z,19.58
2023-06-30T00:42:28.262Z,19.58
2023-06-30T00:43:28.244Z,19.56
2023-06-30T00:44:28.249Z,19.59
2023-06-30T00:45:28.239Z,19.59
2023-06-30T00:46:28.278Z,19.61
2023-06-30T00:47:28.260Z,19.58
2023-06-30T00:48:28.198Z,19.61
2023-06-30T00:49:28.190Z,19.62
2023-06-30T00:50:28.213Z,19.61
2023-06-30T00:51:28.147Z,19.62
2023-06-30T00:52:28.146Z,19.62
2023-06-30T00:53:28.109Z,19.63
2023-06-30T00:54:28.249Z,19.61
2023-06-30T00:55:28.141Z,19.62
2023-06-30T00:56:28.128Z,19.59
2023-06-30T00:57:28.068Z,19.59
2023-06-30T00:58:28.050Z,19.58
2023-06-30T00:59:28.048Z,19.56
2023-06-30T01:00:28.024Z,19.55
2023-06-30T01:01:28.039Z,19.54
2023-06-30T01:02:28.150Z,19.54
2023-06-30T01:03:28.163Z,19.51
2023-06-30T01:04:28.247Z,19.50
2023-06-30T01:05:27.983Z,19.47
2023-06-30T01:06:27.966Z,19.47
2023-06-30T01:07:27.994Z,19.46
2023-06-30T01:08:27.951Z,19.46
2023-06-30T01:09:27.918Z,19.46
2023-06-30T01:10:27.912Z,19.47
2023-06-30T01:11:27.908Z,19.46
2023-06-30T01:12:27.885Z,19.46
2023-06-30T01:13:27.887Z,19.43
2023-06-30T01:14:27.836Z,19.44
2023-06-30T01:15:27.840Z,19.44
2023-06-30T01:16:27.931Z,19.43
2023-06-30T01:17:27.828Z,19.41
2023-06-30T01:18:27.844Z,19.40
2023-06-30T01:19:27.793Z,19.41
2023-06-30T01:20:27.789Z,19.41
2023-06-30T01:21:27.786Z,19.39
2023-06-30T01:22:27.839Z,19.39
2023-06-30T01:23:27.760Z,19.36
2023-06-30T01:24:27.749Z,19.36
2023-06-30T01:25:27.716Z,19.33
2023-06-30T01:26:27.760Z,19.33
2023-06-30T01:27:27.715Z,19.32
2023-06-30T01:28:27.705Z,19.31
2023-06-30T01:29:27.706Z,19.29
2023-06-30T01:30:27.670Z,19.28
2023-06-30T01:31:27.709Z,19.26
2023-06-30T01:32:27.668Z,19.25
2023-06-30T01:33:27.616Z,19.26
2023-06-30T01:34:27.595Z,19.23
2023-06-30T01:35:27.564Z,19.23
2023-06-30T01:36:27.589Z,19.23
2023-06-30T01:37:27.569Z,19.21
2023-06-30T01:38:27.540Z,19.19
2023-06-30T01:39:27.520Z,19.16
2023-06-30T01:40:27.539Z,19.16
2023-06-30T01:41:27.522Z,19.14
2023-06-30T01:42:27.508Z,19.10
2023-06-30T01:43:27.497Z,19.10
2023-06-30T01:44:27.460Z,19.08
2023-06-30T01:45:27.436Z,19.06
2023-06-30T01:46:27.472Z,19.04
2023-06-30T01:47:27.471Z,19.00
2023-06-30T01:48:27.462Z,18.98
2023-06-30T01:49:27.455Z,18.98
2023-06-30T01:50:27.396Z,18.98
2023-06-30T01:51:27.400Z,18.91
2023-06-30T01:52:27.395Z,18.90
2023-06-30T01:53:27.369Z,18.88
2023-06-30T01:54:27.351Z,18.85
2023-06-30T01:55:27.350Z,18.84
2023-06-30T01:56:27.453Z,18.81
2023-06-30T01:57:27.546Z,18.80
2023-06-30T01:58:27.372Z,18.78
2023-06-30T01:59:27.428Z,18.78
2023-06-30T02:00:27.257Z,18.75
2023-06-30T02:01:27.259Z,18.75
2023-06-30T02:02:27.356Z,18.70
2023-06-30T02:03:27.305Z,18.70
2023-06-30T02:04:27.216Z,18.67
2023-06-30T02:05:27.232Z,18.66
2023-06-30T02:06:27.184Z,18.65
2023-06-30T02:07:27.202Z,18.63
2023-06-30T02:08:27.201Z,18.60
2023-06-30T02:09:38.883Z,18.62
2023-06-30T02:10:28.110Z,18.58
2023-06-30T02:11:27.095Z,18.57
2023-06-30T02:12:27.125Z,18.57
2023-06-30T02:13:27.106Z,18.55
2023-06-30T02:14:27.081Z,18.54
2023-06-30T02:15:27.086Z,18.54
2023-06-30T02:16:27.080Z,18.51
2023-06-30T02:17:27.209Z,18.52
2023-06-30T02:18:27.037Z,18.51
2023-06-30T02:19:27.026Z,18.52
2023-06-30T02:20:27.025Z,18.51
2023-06-30T02:21:27.017Z,18.50
2023-06-30T02:22:26.986Z,18.50
2023-06-30T02:23:26.976Z,18.48
2023-06-30T02:24:26.975Z,18.47
2023-06-30T02:25:26.961Z,18.45
2023-06-30T02:26:26.964Z,18.45
2023-06-30T02:27:26.931Z,18.45
2023-06-30T02:28:26.969Z,18.45
2023-06-30T02:29:26.876Z,18.45
2023-06-30T02:30:26.943Z,18.44
2023-06-30T02:31:26.904Z,18.42
2023-06-30T02:32:27.010Z,18.44
2023-06-30T02:33:26.846Z,18.42
2023-06-30T02:34:26.949Z,18.41
2023-06-30T02:35:26.931Z,18.41
2023-06-30T02:36:26.800Z,18.37
2023-06-30T02:37:26.815Z,18.37
2023-06-30T02:38:28.232Z,18.36
2023-06-30T02:39:26.813Z,18.36
2023-06-30T02:40:26.818Z,18.35
2023-06-30T02:41:26.853Z,18.35
2023-06-30T02:42:26.905Z,18.35
2023-06-30T02:43:26.842Z,18.35
2023-06-30T02:44:26.743Z,18.35
2023-06-30T02:45:26.830Z,18.35
2023-06-30T02:46:26.952Z,18.35
2023-06-30T02:47:26.749Z,18.32
2023-06-30T02:48:26.731Z,18.32
2023-06-30T02:49:26.644Z,18.29
2023-06-30T02:50:26.626Z,18.26
2023-06-30T02:51:26.672Z,18.26
2023-06-30T02:52:26.624Z,18.25
2023-06-30T02:53:26.597Z,18.23
2023-06-30T02:54:26.607Z,18.21
2023-06-30T02:55:26.648Z,18.21
2023-06-30T02:56:26.592Z,18.18
2023-06-30T02:57:26.576Z,18.18
2023-06-30T02:58:26.634Z,18.17
2023-06-30T02:59:26.603Z,18.15
2023-06-30T03:00:26.531Z,18.15
2023-06-30T03:01:26.586Z,18.15
2023-06-30T03:02:26.768Z,18.15
2023-06-30T03:03:26.497Z,18.17
2023-06-30T03:04:26.458Z,18.15
2023-06-30T03:05:26.450Z,18.18
2023-06-30T03:06:26.431Z,18.18
2023-06-30T03:07:26.459Z,18.20
2023-06-30T03:08:26.391Z,18.20
2023-06-30T03:09:26.371Z,18.20
2023-06-30T03:10:26.363Z,18.20
2023-06-30T03:11:26.322Z,18.21
2023-06-30T03:12:26.399Z,18.21
2023-06-30T03:13:26.297Z,18.21
2023-06-30T03:14:26.324Z,18.25
2023-06-30T03:15:26.264Z,18.23
2023-06-30T03:16:26.300Z,18.23
2023-06-30T03:17:26.281Z,18.21
2023-06-30T03:18:26.263Z,18.25
2023-06-30T03:19:26.228Z,18.25
2023-06-30T03:20:26.206Z,18.23
2023-06-30T03:21:26.194Z,18.25
2023-06-30T03:22:26.211Z,18.23
2023-06-30T03:23:26.176Z,18.25
2023-06-30T03:24:26.168Z,18.25
2023-06-30T03:25:26.144Z,18.26
2023-06-30T03:26:26.144Z,18.26
2023-06-30T03:27:26.106Z,18.27
2023-06-30T03:28:26.102Z,18.29
2023-06-30T03:29:26.089Z,18.30
2023-06-30T03:30:26.097Z,18.29
2023-06-30T03:31:26.155Z,18.32
2023-06-30T03:32:26.148Z,18.33
2023-06-30T03:33:26.070Z,18.32
2023-06-30T03:34:26.001Z,18.33
2023-06-30T03:35:25.988Z,18.33
2023-06-30T03:36:25.986Z,18.36
2023-06-30T03:37:25.979Z,18.35
2023-06-30T03:38:25.980Z,18.35
2023-06-30T03:39:25.953Z,18.35
2023-06-30T03:40:25.997Z,18.35
2023-06-30T03:41:25.918Z,18.33
2023-06-30T03:42:25.917Z,18.35
2023-06-30T03:43:25.927Z,18.36
2023-06-30T03:44:25.874Z,18.33
2023-06-30T03:45:25.878Z,18.35
2023-06-30T03:46:25.879Z,18.32
2023-06-30T03:47:25.873Z,18.33
2023-06-30T03:48:25.831Z,18.33
2023-06-30T03:49:25.826Z,18.35
2023-06-30T03:50:25.806Z,18.36
2023-06-30T03:51:25.790Z,18.36
2023-06-30T03:52:25.797Z,18.35
2023-06-30T03:53:25.943Z,18.36
2023-06-30T03:54:25.785Z,18.37
2023-06-30T03:55:25.760Z,18.39
2023-06-30T03:56:25.727Z,18.39
2023-06-30T03:57:25.796Z,18.41
2023-06-30T03:58:25.683Z,18.41
2023-06-30T03:59:25.704Z,18.44
2023-06-30T04:00:25.662Z,18.44
2023-06-30T04:01:25.663Z,18.45
2023-06-30T04:02:25.695Z,18.44
2023-06-30T04:03:27.646Z,18.47
2023-06-30T04:04:25.890Z,18.48
2023-06-30T04:05:25.620Z,18.48
2023-06-30T04:06:25.584Z,18.51
2023-06-30T04:07:25.627Z,18.51
2023-06-30T04:08:25.748Z,18.51
2023-06-30T04:09:25.546Z,18.54
2023-06-30T04:10:25.572Z,18.52
2023-06-30T04:11:25.527Z,18.57
2023-06-30T04:12:25.494Z,18.58
2023-06-30T04:13:25.509Z,18.55
2023-06-30T04:14:25.474Z,18.57
2023-06-30T04:15:25.499Z,18.57
2023-06-30T04:16:25.484Z,18.57
2023-06-30T04:17:25.465Z,18.57
2023-06-30T04:18:25.425Z,18.58
2023-06-30T04:19:25.428Z,18.58
2023-06-30T04:20:25.429Z,18.60
2023-06-30T04:21:25.377Z,18.60
2023-06-30T04:22:25.364Z,18.60
2023-06-30T04:23:25.366Z,18.60
2023-06-30T04:24:25.387Z,18.62
2023-06-30T04:25:25.348Z,18.60
2023-06-30T04:26:25.327Z,18.60
2023-06-30T04:27:25.308Z,18.63
2023-06-30T04:28:25.300Z,18.63
2023-06-30T04:29:25.292Z,18.65
2023-06-30T04:30:25.261Z,18.65
2023-06-30T04:31:25.273Z,18.65
2023-06-30T04:32:25.234Z,18.66
2023-06-30T04:33:25.394Z,18.65
2023-06-30T04:34:25.217Z,18.62
2023-06-30T04:35:25.238Z,18.63
2023-06-30T04:36:25.198Z,18.60
2023-06-30T04:37:25.192Z,18.60
2023-06-30T04:38:25.475Z,18.60
2023-06-30T04:39:25.154Z,18.58
2023-06-30T04:40:25.145Z,18.58
2023-06-30T04:41:25.123Z,18.60
2023-06-30T04:42:25.110Z,18.62
2023-06-30T04:43:25.130Z,18.60
2023-06-30T04:44:25.098Z,18.62
2023-06-30T04:45:25.104Z,18.62
2023-06-30T04:46:25.136Z,18.62
2023-06-30T04:47:25.159Z,18.60
2023-06-30T04:48:25.049Z,18.57
2023-06-30T04:49:25.014Z,18.57
2023-06-30T04:50:25.010Z,18.54
2023-06-30T04:51:25.026Z,18.57
2023-06-30T04:52:25.003Z,18.57
2023-06-30T04:53:25.002Z,18.60
2023-06-30T04:54:24.964Z,18.58
2023-06-30T04:55:24.943Z,18.60
2023-06-30T04:56:24.937Z,18.62
2023-06-30T04:57:24.944Z,18.62
2023-06-30T04:58:24.912Z,18.63
2023-06-30T04:59:24.921Z,18.63
2023-06-30T05:00:24.873Z,18.62
2023-06-30T05:01:24.888Z,18.62
2023-06-30T05:02:24.890Z,18.62
2023-06-30T05:03:24.841Z,18.62
2023-06-30T05:04:24.826Z,18.60
2023-06-30T05:05:24.819Z,18.58
2023-06-30T05:06:24.810Z,18.57
2023-06-30T05:07:24.847Z,18.54
2023-06-30T05:08:24.760Z,18.52
2023-06-30T05:09:24.766Z,18.54
2023-06-30T05:10:24.742Z,18.51
2023-06-30T05:11:24.737Z,18.50
2023-06-30T05:12:24.729Z,18.52
2023-06-30T05:13:24.718Z,18.50
2023-06-30T05:14:24.738Z,18.51
2023-06-30T05:15:24.716Z,18.51
2023-06-30T05:16:24.743Z,18.51
2023-06-30T05:17:25.043Z,18.51
2023-06-30T05:18:24.744Z,18.48
2023-06-30T05:19:24.640Z,18.50
2023-06-30T05:20:24.651Z,18.45
2023-06-30T05:21:24.608Z,18.45
2023-06-30T05:22:24.584Z,18.45
2023-06-30T05:23:24.578Z,18.44
2023-06-30T05:24:24.556Z,18.44
2023-06-30T05:25:24.554Z,18.41
2023-06-30T05:26:24.550Z,18.41
2023-06-30T05:27:24.509Z,18.41
2023-06-30T05:28:24.526Z,18.42
2023-06-30T05:29:24.526Z,18.42
2023-06-30T05:30:24.500Z,18.39
2023-06-30T05:31:24.513Z,18.39
2023-06-30T05:32:24.562Z,18.42
2023-06-30T05:33:24.441Z,18.37
2023-06-30T05:34:24.478Z,18.39
2023-06-30T05:35:24.411Z,18.39
2023-06-30T05:36:24.521Z,18.37
2023-06-30T05:37:24.389Z,18.33
2023-06-30T05:38:24.371Z,18.33
2023-06-30T05:39:24.378Z,18.32
2023-06-30T05:40:24.339Z,18.29
2023-06-30T05:41:24.359Z,18.26
2023-06-30T05:42:24.358Z,18.26
2023-06-30T05:43:24.363Z,18.25
2023-06-30T05:44:24.437Z,18.23
2023-06-30T05:45:24.327Z,18.11
2023-06-30T05:46:24.337Z,18.03
2023-06-30T05:47:24.357Z,17.97
2023-06-30T05:48:24.293Z,17.95
2023-06-30T05:49:31.772Z,17.90
2023-06-30T05:50:24.261Z,17.87
2023-06-30T05:51:24.210Z,17.86
2023-06-30T05:52:24.215Z,17.77
2023-06-30T05:53:24.232Z,17.68
2023-06-30T05:54:24.190Z,17.71
2023-06-30T05:55:24.182Z,17.63
2023-06-30T05:56:24.152Z,17.54
2023-06-30T05:57:24.177Z,17.48
2023-06-30T05:58:24.198Z,17.40
2023-06-30T05:59:24.120Z,17.34
2023-06-30T06:00:24.085Z,17.28
2023-06-30T06:01:24.152Z,17.25
2023-06-30T06:02:24.209Z,17.25
2023-06-30T06:03:24.197Z,17.22
2023-06-30T06:04:24.130Z,17.23
2023-06-30T06:05:24.179Z,17.23
2023-06-30T06:06:24.021Z,17.22
2023-06-30T06:07:24.133Z,17.21
2023-06-30T06:08:24.046Z,17.19
2023-06-30T06:09:24.014Z,17.18
2023-06-30T06:10:23.999Z,17.18
2023-06-30T06:11:23.962Z,17.16
2023-06-30T06:12:23.990Z,17.14
2023-06-30T06:13:23.990Z,17.08
2023-06-30T06:14:23.910Z,17.07
2023-06-30T06:15:23.918Z,17.03
2023-06-30T06:16:24.007Z,17.01
2023-06-30T06:17:23.948Z,16.98
2023-06-30T06:18:23.888Z,17.00
2023-06-30T06:19:23.958Z,16.96
2023-06-30T06:20:23.877Z,16.96
2023-06-30T06:21:23.858Z,16.96
2023-06-30T06:22:23.873Z,17.00
2023-06-30T06:23:23.822Z,17.00
2023-06-30T06:24:23.791Z,17.01
2023-06-30T06:25:23.860Z,17.00
2023-06-30T06:26:23.818Z,17.03
2023-06-30T06:27:23.813Z,17.00
2023-06-30T06:28:23.752Z,17.01
2023-06-30T06:29:23.779Z,16.96
2023-06-30T06:30:23.735Z,16.97
2023-06-30T06:31:23.738Z,16.98
2023-06-30T06:32:23.794Z,17.04
2023-06-30T06:33:23.684Z,17.01
2023-06-30T06:34:23.664Z,17.01
2023-06-30T06:35:23.669Z,17.07
2023-06-30T06:36:23.658Z,17.12
2023-06-30T06:37:23.622Z,17.12
2023-06-30T06:38:23.697Z,17.15
2023-06-30T06:39:23.649Z,17.16
2023-06-30T06:40:23.586Z,17.15
2023-06-30T06:41:23.608Z,17.14
2023-06-30T06:42:23.568Z,17.12
2023-06-30T06:43:23.557Z,17.14
2023-06-30T06:44:23.574Z,17.16
2023-06-30T06:45:23.519Z,17.11
2023-06-30T06:46:23.572Z,17.12
2023-06-30T06:47:23.560Z,17.07
2023-06-30T06:48:23.536Z,17.06
2023-06-30T06:49:23.514Z,17.03
2023-06-30T06:50:23.471Z,17.00
2023-06-30T06:51:23.457Z,16.98
2023-06-30T06:52:23.428Z,16.96
2023-06-30T06:53:23.428Z,16.94
2023-06-30T06:54:23.433Z,16.98
2023-06-30T06:55:23.424Z,17.00
2023-06-30T06:56:23.361Z,17.00
2023-06-30T06:57:23.359Z,17.00
2023-06-30T06:58:23.412Z,17.00
2023-06-30T06:59:23.319Z,17.00
2023-06-30T07:00:23.392Z,16.97
2023-06-30T07:01:23.586Z,16.97
2023-06-30T07:02:23.368Z,16.96
2023-06-30T07:03:23.341Z,16.96
2023-06-30T07:04:23.433Z,16.96
2023-06-30T07:05:23.261Z,16.93
2023-06-30T07:06:23.255Z,16.88
2023-06-30T07:07:23.338Z,16.86
2023-06-30T07:08:23.298Z,16.89
2023-06-30T07:09:23.272Z,16.89
2023-06-30T07:10:23.246Z,16.88
2023-06-30T07:11:23.172Z,16.85
2023-06-30T07:12:23.272Z,16.86
2023-06-30T07:13:23.170Z,16.81
2023-06-30T07:14:23.252Z,16.78
2023-06-30T07:15:23.153Z,16.75
2023-06-30T07:16:23.200Z,16.75
2023-06-30T07:17:23.149Z,16.71
2023-06-30T07:18:23.122Z,16.67
2023-06-30T07:19:23.074Z,16.61
2023-06-30T07:20:23.139Z,16.63
2023-06-30T07:21:23.089Z,16.66
2023-06-30T07:22:23.239Z,16.67
2023-06-30T07:23:26.434Z,16.68
2023-06-30T07:24:23.541Z,16.67
2023-06-30T07:25:23.087Z,16.66
2023-06-30T07:26:23.081Z,16.68
2023-06-30T07:27:23.026Z,16.71
2023-06-30T07:28:22.962Z,16.75
2023-06-30T07:29:22.938Z,16.75
2023-06-30T07:30:22.916Z,16.79
2023-06-30T07:31:23.089Z,16.78
2023-06-30T07:32:22.946Z,16.82
2023-06-30T07:33:22.953Z,16.85
2023-06-30T07:34:22.924Z,16.82
2023-06-30T07:35:23.131Z,16.82
2023-06-30T07:36:22.876Z,16.83
2023-06-30T07:37:22.876Z,16.86
2023-06-30T07:38:22.901Z,16.93
2023-06-30T07:39:22.870Z,16.89
2023-06-30T07:40:24.171Z,16.91
2023-06-30T07:41:22.894Z,16.93
2023-06-30T07:42:22.862Z,16.96
2023-06-30T07:43:22.793Z,16.89
2023-06-30T07:44:22.789Z,16.88
2023-06-30T07:45:22.825Z,16.85
2023-06-30T07:46:22.816Z,16.85
2023-06-30T07:47:22.764Z,16.75
2023-06-30T07:48:22.802Z,16.75
2023-06-30T07:49:22.684Z,16.76
2023-06-30T07:50:22.748Z,16.82
2023-06-30T07:51:22.665Z,16.85
2023-06-30T07:52:22.714Z,16.83
2023-06-30T07:53:22.620Z,16.76
2023-06-30T07:54:22.741Z,16.70
2023-06-30T07:55:22.651Z,16.64
2023-06-30T07:56:22.607Z,16.61
2023-06-30T07:57:22.717Z,16.56
2023-06-30T07:58:22.599Z,16.49
2023-06-30T07:59:23.128Z,16.45
2023-06-30T08:00:22.524Z,16.42
2023-06-30T08:01:22.544Z,16.33
2023-06-30T08:02:22.614Z,16.34
2023-06-30T08:03:22.668Z,16.33
2023-06-30T08:04:22.866Z,16.28
2023-06-30T08:05:22.545Z,16.24
2023-06-30T08:06:22.468Z,16.23
2023-06-30T08:07:44.268Z,16.11
2023-06-30T08:08:23.696Z,16.04
2023-06-30T08:09:22.461Z,15.94
2023-06-30T08:10:22.757Z,15.94
2023-06-30T08:11:22.407Z,15.90
2023-06-30T08:12:22.499Z,15.87
2023-06-30T08:13:22.401Z,15.82
2023-06-30T08:14:22.353Z,15.76
2023-06-30T08:15:22.334Z,15.75
2023-06-30T08:16:22.486Z,15.76
2023-06-30T08:17:26.600Z,15.75
2023-06-30T08:18:31.587Z,15.74
2023-06-30T08:19:48.382Z,15.72
2023-06-30T08:20:23.615Z,15.76
2023-06-30T08:21:22.280Z,15.80
2023-06-30T08:22:22.263Z,15.78
2023-06-30T08:23:22.273Z,15.80
2023-06-30T08:24:22.214Z,15.78
2023-06-30T08:25:22.212Z,15.78
2023-06-30T08:26:22.199Z,15.82
2023-06-30T08:27:22.266Z,15.86
2023-06-30T08:28:22.176Z,15.90
2023-06-30T08:29:22.158Z,15.92
2023-06-30T08:30:25.002Z,15.92
2023-06-30T08:31:22.229Z,15.94
2023-06-30T08:32:22.138Z,16.02
2023-06-30T08:33:34.909Z,16.07
2023-06-30T08:34:23.070Z,16.08
2023-06-30T08:35:22.186Z,16.08
2023-06-30T08:36:22.098Z,16.09
2023-06-30T08:37:22.033Z,16.17
2023-06-30T08:38:22.053Z,16.25
2023-06-30T08:39:22.181Z,16.31
2023-06-30T08:40:22.005Z,16.34
2023-06-30T08:41:22.007Z,16.41
2023-06-30T08:42:21.958Z,16.48
2023-06-30T08:43:25.107Z,16.48
2023-06-30T08:44:22.395Z,16.52
2023-06-30T08:45:21.989Z,16.50
2023-06-30T08:46:21.991Z,16.53
2023-06-30T08:47:21.952Z,16.50
2023-06-30T08:48:21.886Z,16.52
2023-06-30T08:49:21.896Z,16.49
2023-06-30T08:50:22.060Z,16.49
2023-06-30T08:51:21.876Z,16.50
2023-06-30T08:52:21.886Z,16.57
2023-06-30T08:53:21.878Z,16.58
2023-06-30T08:54:21.864Z,16.58
2023-06-30T08:55:22.012Z,16.56
2023-06-30T08:56:21.817Z,16.58
2023-06-30T08:57:21.828Z,16.57
2023-06-30T08:58:26.385Z,16.53
2023-06-30T08:59:22.799Z,16.53
2023-06-30T09:00:21.788Z,16.53
2023-06-30T09:01:21.865Z,16.48
2023-06-30T09:02:21.813Z,16.52
2023-06-30T09:03:21.829Z,16.52
2023-06-30T09:04:21.742Z,16.57
2023-06-30T09:05:21.712Z,16.58
2023-06-30T09:06:21.676Z,16.64
2023-06-30T09:07:21.735Z,16.64
2023-06-30T09:08:21.640Z,16.67
2023-06-30T09:09:21.722Z,16.70
2023-06-30T09:10:21.636Z,16.75
2023-06-30T09:11:21.602Z,16.76
2023-06-30T09:12:29.082Z,16.79
2023-06-30T09:13:30.284Z,16.79
2023-06-30T09:14:29.074Z,16.76
2023-06-30T09:15:29.050Z,16.76
2023-06-30T09:16:29.106Z,16.78
2023-06-30T09:17:29.044Z,16.76
2023-06-30T09:18:30.226Z,16.78
2023-06-30T09:19:21.504Z,16.75
2023-06-30T09:20:28.998Z,16.76
2023-06-30T09:21:29.975Z,16.79
2023-06-30T09:22:53.308Z,16.79
2023-06-30T09:23:28.956Z,16.85
2023-06-30T09:24:28.936Z,16.91
2023-06-30T09:25:21.392Z,16.96
2023-06-30T09:26:21.376Z,17.00
2023-06-30T09:27:21.517Z,17.00
2023-06-30T09:28:21.378Z,17.03
2023-06-30T09:29:21.339Z,17.04
2023-06-30T09:30:21.324Z,17.06
2023-06-30T09:31:21.330Z,17.08
2023-06-30T09:32:21.488Z,16.98
2023-06-30T09:33:21.335Z,16.94
2023-06-30T09:34:23.954Z,16.96
2023-06-30T09:35:21.356Z,16.98
2023-06-30T09:36:21.333Z,17.00
2023-06-30T09:37:21.256Z,17.00
2023-06-30T09:38:21.242Z,17.04
2023-06-30T09:39:21.290Z,17.04
2023-06-30T09:40:21.206Z,17.08
2023-06-30T09:41:21.301Z,17.07
2023-06-30T09:42:21.210Z,17.08
2023-06-30T09:43:21.167Z,17.04
2023-06-30T09:44:21.228Z,17.00
2023-06-30T09:45:21.225Z,16.96
2023-06-30T09:46:21.210Z,16.98
2023-06-30T09:47:21.147Z,17.00
2023-06-30T09:48:21.097Z,17.00
2023-06-30T09:49:21.079Z,17.00
2023-06-30T09:50:21.136Z,17.04
2023-06-30T09:51:21.101Z,17.04
2023-06-30T09:52:21.054Z,16.98
2023-06-30T09:53:21.082Z,16.96
2023-06-30T09:54:28.859Z,16.89
2023-06-30T09:55:22.022Z,16.97
2023-06-30T09:56:20.990Z,17.07
2023-06-30T09:57:20.985Z,17.12
2023-06-30T09:58:20.984Z,17.15
2023-06-30T09:59:20.970Z,17.15
2023-06-30T10:00:34.482Z,17.25
2023-06-30T10:01:21.936Z,17.31
2023-06-30T10:02:20.995Z,17.40
2023-06-30T10:03:20.992Z,17.55
2023-06-30T10:04:20.952Z,17.71
2023-06-30T10:05:20.989Z,17.64
2023-06-30T10:06:20.947Z,17.59
2023-06-30T10:07:20.904Z,17.58
2023-06-30T10:08:20.871Z,17.70
2023-06-30T10:09:20.889Z,17.89
2023-06-30T10:10:20.856Z,17.87
2023-06-30T10:11:20.804Z,17.93
2023-06-30T10:12:20.798Z,17.96
2023-06-30T10:13:20.832Z,17.89
2023-06-30T10:14:20.795Z,17.93
2023-06-30T10:15:20.812Z,17.97
2023-06-30T10:16:20.770Z,18.10
2023-06-30T10:17:29.294Z,18.25
2023-06-30T10:18:23.497Z,18.44
2023-06-30T10:19:20.723Z,18.57
2023-06-30T10:20:23.577Z,18.65
2023-06-30T10:21:21.685Z,18.55
2023-06-30T10:22:20.685Z,18.51
2023-06-30T10:23:20.988Z,18.51
2023-06-30T10:24:20.624Z,18.60
2023-06-30T10:25:20.687Z,18.37
2023-06-30T10:26:20.624Z,18.37
2023-06-30T10:27:20.584Z,18.29
2023-06-30T10:28:20.636Z,18.33
2023-06-30T10:29:20.569Z,18.47
2023-06-30T10:30:20.569Z,18.52
2023-06-30T10:31:20.581Z,18.45
2023-06-30T10:32:21.889Z,18.47
2023-06-30T10:33:20.615Z,18.60
2023-06-30T10:34:20.529Z,18.72
2023-06-30T10:35:20.469Z,18.69
2023-06-30T10:36:20.495Z,18.70
2023-06-30T10:37:23.372Z,18.76
2023-06-30T10:38:20.456Z,18.95
2023-06-30T10:39:20.984Z,18.94
2023-06-30T10:40:20.441Z,19.11
2023-06-30T10:41:20.654Z,19.13
2023-06-30T10:42:20.438Z,19.44
2023-06-30T10:43:20.385Z,19.50
2023-06-30T10:44:20.360Z,19.44
2023-06-30T10:45:20.359Z,19.61
2023-06-30T10:46:20.403Z,19.68
2023-06-30T10:47:20.366Z,19.68
2023-06-30T10:48:20.342Z,19.56
2023-06-30T10:49:20.335Z,19.58
2023-06-30T10:50:20.331Z,19.46
2023-06-30T10:51:20.335Z,19.44
2023-06-30T10:52:20.269Z,19.47
2023-06-30T10:53:20.243Z,19.33
2023-06-30T10:54:20.259Z,19.14
2023-06-30T10:55:20.220Z,19.02
2023-06-30T10:56:20.242Z,18.84
2023-06-30T10:57:20.229Z,18.72
2023-06-30T10:58:20.196Z,18.70
2023-06-30T10:59:20.162Z,18.63
2023-06-30T11:00:20.166Z,18.63
2023-06-30T11:01:20.246Z,18.62
2023-06-30T11:02:20.141Z,18.60
2023-06-30T11:03:20.264Z,18.54
2023-06-30T11:04:22.672Z,18.47
2023-06-30T11:05:20.113Z,18.50
2023-06-30T11:06:20.154Z,18.55
2023-06-30T11:07:20.174Z,18.57
2023-06-30T11:08:20.053Z,18.54
2023-06-30T11:09:20.044Z,18.52
2023-06-30T11:10:20.742Z,18.50
2023-06-30T11:11:20.025Z,18.41
2023-06-30T11:12:19.997Z,18.44
2023-06-30T11:13:19.968Z,18.42
2023-06-30T11:14:19.979Z,18.27
2023-06-30T11:15:19.968Z,18.32
2023-06-30T11:16:19.970Z,18.17
2023-06-30T11:17:20.054Z,18.10
2023-06-30T11:18:20.135Z,18.15
2023-06-30T11:19:19.960Z,18.26
2023-06-30T11:20:19.914Z,18.39
2023-06-30T11:21:19.919Z,18.47
2023-06-30T11:22:19.868Z,18.52
2023-06-30T11:23:19.853Z,18.51
2023-06-30T11:24:19.909Z,18.76
2023-06-30T11:25:19.825Z,18.87
2023-06-30T11:26:19.913Z,18.91
2023-06-30T11:27:20.259Z,18.94
2023-06-30T11:28:19.814Z,19.00
2023-06-30T11:29:20.455Z,19.02
2023-06-30T11:30:19.763Z,18.99
2023-06-30T11:31:19.859Z,18.90
2023-06-30T11:32:19.809Z,18.94
2023-06-30T11:33:19.767Z,18.98
2023-06-30T11:34:19.722Z,18.91
2023-06-30T11:35:19.717Z,18.84
2023-06-30T11:36:19.708Z,18.85
2023-06-30T11:37:19.725Z,18.84
2023-06-30T11:38:19.681Z,18.90
2023-06-30T11:39:19.671Z,18.90
2023-06-30T11:40:19.627Z,18.92
2023-06-30T11:41:19.618Z,18.95
2023-06-30T11:42:19.628Z,19.06
2023-06-30T11:43:19.610Z,19.08
2023-06-30T11:44:19.567Z,19.00
2023-06-30T11:45:19.571Z,18.95
2023-06-30T11:46:19.591Z,18.92
2023-06-30T11:47:20.552Z,18.99
2023-06-30T11:48:19.529Z,19.11
2023-06-30T11:49:19.519Z,19.25
2023-06-30T11:50:21.129Z,19.32
2023-06-30T11:51:19.520Z,19.46
2023-06-30T11:52:19.515Z,19.51
2023-06-30T11:53:19.464Z,19.63
2023-06-30T11:54:19.430Z,19.71
2023-06-30T11:55:19.443Z,19.63
2023-06-30T11:56:19.445Z,19.78
2023-06-30T11:57:19.442Z,19.91
2023-06-30T11:58:19.388Z,19.87
2023-06-30T11:59:19.384Z,20.02
2023-06-30T12:00:19.363Z,20.10
2023-06-30T12:01:19.377Z,20.20
2023-06-30T12:02:19.373Z,20.21
2023-06-30T12:03:19.381Z,20.23
2023-06-30T12:04:19.486Z,20.14
2023-06-30T12:05:19.327Z,20.01
2023-06-30T12:06:19.308Z,19.99
2023-06-30T12:07:19.351Z,19.91
2023-06-30T12:08:19.277Z,19.77
2023-06-30T12:09:19.233Z,19.62
2023-06-30T12:10:19.245Z,19.58
2023-06-30T12:11:19.240Z,19.54
2023-06-30T12:12:19.198Z,19.39
2023-06-30T12:13:19.192Z,19.16
2023-06-30T12:14:19.175Z,19.07
2023-06-30T12:15:19.197Z,19.00
2023-06-30T12:16:19.189Z,19.00
2023-06-30T12:17:19.143Z,19.02
2023-06-30T12:18:19.120Z,18.98
2023-06-30T12:19:19.132Z,18.88
2023-06-30T12:20:19.109Z,18.85
2023-06-30T12:21:19.078Z,18.73
2023-06-30T12:22:19.074Z,18.65
2023-06-30T12:23:19.072Z,18.63
2023-06-30T12:24:19.077Z,18.63
2023-06-30T12:25:19.099Z,18.63
2023-06-30T12:26:19.026Z,18.70
2023-06-30T12:27:19.011Z,18.75
2023-06-30T12:28:19.012Z,18.82
2023-06-30T12:29:19.000Z,18.90
2023-06-30T12:30:19.004Z,18.87
2023-06-30T12:31:19.003Z,18.87
2023-06-30T12:32:18.955Z,19.00
2023-06-30T12:33:18.953Z,19.13
2023-06-30T12:34:19.005Z,19.36
2023-06-30T12:35:18.944Z,19.61
2023-06-30T12:36:18.958Z,19.69
2023-06-30T12:37:18.934Z,19.74
2023-06-30T12:38:18.913Z,19.91
2023-06-30T12:39:18.909Z,20.02
2023-06-30T12:40:18.860Z,20.03
2023-06-30T12:41:18.861Z,20.18
2023-06-30T12:42:18.853Z,20.24
2023-06-30T12:43:18.914Z,20.36
2023-06-30T12:44:19.220Z,20.43
2023-06-30T12:45:18.806Z,20.48
2023-06-30T12:46:18.868Z,20.62
2023-06-30T12:47:18.800Z,20.67
2023-06-30T12:48:18.763Z,20.72
2023-06-30T12:49:18.752Z,20.73
2023-06-30T12:50:18.728Z,20.79
2023-06-30T12:51:18.766Z,20.73
2023-06-30T12:52:18.709Z,20.85